sensor_id;sensor_type;location;lat;lon;timestamp;pressure;altitude;pressure_sealevel;temperature;humidity
17635;BME280;8936;49.010;12.120;2023-04-27T00:01:05;98018.66;;;11.34;80.82
17635;BME280;8936;49.010;12.120;2023-04-27T00:03:31;98020.81;;;11.47;83.83
17635;BME280;8936;49.010;12.120;2023-04-27T00:05:57;98022.69;;;11.47;84.53
17635;BME280;8936;49.010;12.120;2023-04-27T00:08:24;98014.69;;;11.92;82.33
17635;BME280;8936;49.010;12.120;2023-04-27T00:10:51;98018.72;;;12.10;82.48
17635;BME280;8936;49.010;12.120;2023-04-27T00:13:18;98009.53;;;12.46;78.07
17635;BME280;8936;49.010;12.120;2023-04-27T00:15:44;98005.38;;;12.84;75.36
17635;BME280;8936;49.010;12.120;2023-04-27T00:18:10;98005.56;;;13.03;72.19
17635;BME280;8936;49.010;12.120;2023-04-27T00:20:37;98011.69;;;13.13;71.03
17635;BME280;8936;49.010;12.120;2023-04-27T00:23:04;98013.53;;;13.23;69.69
17635;BME280;8936;49.010;12.120;2023-04-27T00:25:30;98008.97;;;13.23;69.47
17635;BME280;8936;49.010;12.120;2023-04-27T00:27:58;98014.59;;;13.22;69.59
17635;BME280;8936;49.010;12.120;2023-04-27T00:30:24;98009.34;;;12.91;70.23
17635;BME280;8936;49.010;12.120;2023-04-27T00:32:51;98009.56;;;12.36;70.04
17635;BME280;8936;49.010;12.120;2023-04-27T00:35:17;98008.81;;;11.90;72.82
17635;BME280;8936;49.010;12.120;2023-04-27T00:37:43;98007.72;;;11.66;74.60
17635;BME280;8936;49.010;12.120;2023-04-27T00:40:10;98011.16;;;11.31;76.17
17635;BME280;8936;49.010;12.120;2023-04-27T00:42:37;98008.75;;;11.19;81.27
17635;BME280;8936;49.010;12.120;2023-04-27T00:45:05;98014.88;;;11.10;81.16
17635;BME280;8936;49.010;12.120;2023-04-27T00:47:31;98008.22;;;11.22;83.40
17635;BME280;8936;49.010;12.120;2023-04-27T00:49:58;98007.72;;;11.35;82.52
17635;BME280;8936;49.010;12.120;2023-04-27T00:52:24;98010.38;;;11.61;82.66
17635;BME280;8936;49.010;12.120;2023-04-27T00:54:51;98012.19;;;11.15;83.03
17635;BME280;8936;49.010;12.120;2023-04-27T00:57:18;98006.06;;;11.24;84.65
17635;BME280;8936;49.010;12.120;2023-04-27T00:59:47;98019.66;;;11.03;83.28
17635;BME280;8936;49.010;12.120;2023-04-27T01:02:15;98011.66;;;11.08;84.80
17635;BME280;8936;49.010;12.120;2023-04-27T01:04:42;98014.69;;;11.57;84.30
17635;BME280;8936;49.010;12.120;2023-04-27T01:07:08;98009.34;;;11.57;81.72
17635;BME280;8936;49.010;12.120;2023-04-27T01:09:34;98001.06;;;12.04;79.23
17635;BME280;8936;49.010;12.120;2023-04-27T01:12:01;98011.75;;;12.19;76.24
17635;BME280;8936;49.010;12.120;2023-04-27T01:14:28;98011.47;;;12.25;74.56
17635;BME280;8936;49.010;12.120;2023-04-27T01:16:55;98005.03;;;12.31;72.98
17635;BME280;8936;49.010;12.120;2023-04-27T01:19:22;98000.97;;;12.39;72.77
17635;BME280;8936;49.010;12.120;2023-04-27T01:21:49;97990.78;;;12.46;73.31
17635;BME280;8936;49.010;12.120;2023-04-27T01:24:16;97999.63;;;12.47;72.76
17635;BME280;8936;49.010;12.120;2023-04-27T01:26:43;97989.44;;;12.49;71.94
17635;BME280;8936;49.010;12.120;2023-04-27T01:29:09;97983.81;;;12.50;71.54
17635;BME280;8936;49.010;12.120;2023-04-27T01:31:36;97985.44;;;12.46;71.22
17635;BME280;8936;49.010;12.120;2023-04-27T01:34:03;97990.31;;;12.19;71.89
17635;BME280;8936;49.010;12.120;2023-04-27T01:36:30;97983.94;;;11.54;74.24
17635;BME280;8936;49.010;12.120;2023-04-27T01:38:56;97997.19;;;10.99;77.35
17635;BME280;8936;49.010;12.120;2023-04-27T01:41:24;98003.94;;;10.49;82.89
17635;BME280;8936;49.010;12.120;2023-04-27T01:43:51;97999.44;;;10.13;86.99
17635;BME280;8936;49.010;12.120;2023-04-27T01:46:17;97996.75;;;10.08;89.43
17635;BME280;8936;49.010;12.120;2023-04-27T01:48:43;98003.97;;;10.12;91.34
17635;BME280;8936;49.010;12.120;2023-04-27T01:51:10;98002.66;;;10.57;90.20
17635;BME280;8936;49.010;12.120;2023-04-27T01:53:36;98010.06;;;10.45;89.65
17635;BME280;8936;49.010;12.120;2023-04-27T01:56:02;98003.03;;;10.86;88.82
17635;BME280;8936;49.010;12.120;2023-04-27T01:58:30;98009.28;;;11.26;86.52
17635;BME280;8936;49.010;12.120;2023-04-27T02:00:57;98009.28;;;11.36;83.96
17635;BME280;8936;49.010;12.120;2023-04-27T02:03:23;98010.09;;;11.42;81.14
17635;BME280;8936;49.010;12.120;2023-04-27T02:05:50;98013.34;;;11.59;81.81
17635;BME280;8936;49.010;12.120;2023-04-27T02:08:16;98010.69;;;11.54;81.56
17635;BME280;8936;49.010;12.120;2023-04-27T02:10:42;98014.44;;;11.63;79.33
17635;BME280;8936;49.010;12.120;2023-04-27T02:13:09;98014.41;;;11.58;80.41
17635;BME280;8936;49.010;12.120;2023-04-27T02:15:36;98009.03;;;11.38;81.27
17635;BME280;8936;49.010;12.120;2023-04-27T02:18:03;98022.34;;;11.18;83.45
17635;BME280;8936;49.010;12.120;2023-04-27T02:20:29;98023.97;;;11.24;84.00
17635;BME280;8936;49.010;12.120;2023-04-27T02:22:56;98021.50;;;10.92;85.48
17635;BME280;8936;49.010;12.120;2023-04-27T02:25:22;98023.47;;;11.42;83.87
17635;BME280;8936;49.010;12.120;2023-04-27T02:27:49;98014.44;;;11.63;81.70
17635;BME280;8936;49.010;12.120;2023-04-27T02:30:15;98020.84;;;11.57;81.71
17635;BME280;8936;49.010;12.120;2023-04-27T02:32:43;98016.56;;;11.51;81.55
17635;BME280;8936;49.010;12.120;2023-04-27T02:35:10;98015.19;;;11.49;82.23
17635;BME280;8936;49.010;12.120;2023-04-27T02:37:36;98017.28;;;11.26;84.21
17635;BME280;8936;49.010;12.120;2023-04-27T02:40:03;98020.78;;;11.42;83.89
17635;BME280;8936;49.010;12.120;2023-04-27T02:42:31;98016.00;;;11.59;82.88
17635;BME280;8936;49.010;12.120;2023-04-27T02:44:57;98022.41;;;11.38;82.63
17635;BME280;8936;49.010;12.120;2023-04-27T02:47:23;98015.47;;;11.52;82.35
17635;BME280;8936;49.010;12.120;2023-04-27T02:49:52;98013.34;;;11.44;81.27
17635;BME280;8936;49.010;12.120;2023-04-27T02:52:18;98018.38;;;11.25;83.69
17635;BME280;8936;49.010;12.120;2023-04-27T02:54:44;98027.22;;;11.31;84.77
17635;BME280;8936;49.010;12.120;2023-04-27T02:57:11;98024.50;;;11.11;84.31
17635;BME280;8936;49.010;12.120;2023-04-27T02:59:37;98021.84;;;11.31;84.77
17635;BME280;8936;49.010;12.120;2023-04-27T03:02:03;98025.56;;;11.15;85.25
17635;BME280;8936;49.010;12.120;2023-04-27T03:04:30;98026.03;;;10.92;85.16
17635;BME280;8936;49.010;12.120;2023-04-27T03:06:57;98024.94;;;10.93;87.69
17635;BME280;8936;49.010;12.120;2023-04-27T03:09:24;98026.91;;;11.17;85.24
17635;BME280;8936;49.010;12.120;2023-04-27T03:11:50;98028.13;;;10.84;85.99
17635;BME280;8936;49.010;12.120;2023-04-27T03:14:17;98030.53;;;10.76;88.70
17635;BME280;8936;49.010;12.120;2023-04-27T03:16:43;98033.19;;;10.24;90.24
17635;BME280;8936;49.010;12.120;2023-04-27T03:19:09;98037.19;;;10.26;94.12
17635;BME280;8936;49.010;12.120;2023-04-27T03:21:36;98039.81;;;10.68;91.55
17635;BME280;8936;49.010;12.120;2023-04-27T03:24:04;98037.94;;;10.64;90.36
17635;BME280;8936;49.010;12.120;2023-04-27T03:26:30;98042.03;;;10.35;91.77
17635;BME280;8936;49.010;12.120;2023-04-27T03:28:57;98044.94;;;10.75;90.62
17635;BME280;8936;49.010;12.120;2023-04-27T03:31:23;98040.59;;;10.17;93.37
17635;BME280;8936;49.010;12.120;2023-04-27T03:33:49;98045.59;;;10.08;95.87
17635;BME280;8936;49.010;12.120;2023-04-27T03:36:16;98049.63;;;9.79;97.90
17635;BME280;8936;49.010;12.120;2023-04-27T03:38:42;98042.41;;;9.80;100.00
17635;BME280;8936;49.010;12.120;2023-04-27T03:41:10;98048.31;;;10.13;96.65
17635;BME280;8936;49.010;12.120;2023-04-27T03:43:36;98051.69;;;10.09;97.47
17635;BME280;8936;49.010;12.120;2023-04-27T03:46:02;98051.16;;;10.39;96.96
17635;BME280;8936;49.010;12.120;2023-04-27T03:48:29;98050.50;;;10.68;94.36
17635;BME280;8936;49.010;12.120;2023-04-27T03:50:55;98045.56;;;11.02;90.54
17635;BME280;8936;49.010;12.120;2023-04-27T03:53:21;98054.47;;;11.23;88.59
17635;BME280;8936;49.010;12.120;2023-04-27T03:55:48;98055.00;;;11.25;88.32
17635;BME280;8936;49.010;12.120;2023-04-27T03:58:15;98063.56;;;11.27;87.77
17635;BME280;8936;49.010;12.120;2023-04-27T04:00:42;98054.94;;;11.05;88.70
17635;BME280;8936;49.010;12.120;2023-04-27T04:03:08;98064.06;;;11.24;87.49
17635;BME280;8936;49.010;12.120;2023-04-27T04:05:35;98061.91;;;11.11;87.64
17635;BME280;8936;49.010;12.120;2023-04-27T04:08:01;98068.31;;;11.10;87.98
17635;BME280;8936;49.010;12.120;2023-04-27T04:10:27;98072.81;;;10.99;88.60
17635;BME280;8936;49.010;12.120;2023-04-27T04:12:54;98079.34;;;10.66;89.89
17635;BME280;8936;49.010;12.120;2023-04-27T04:15:21;98078.91;;;10.90;91.09
17635;BME280;8936;49.010;12.120;2023-04-27T04:17:48;98078.72;;;11.06;89.42
17635;BME280;8936;49.010;12.120;2023-04-27T04:20:15;98089.66;;;10.95;90.68
17635;BME280;8936;49.010;12.120;2023-04-27T04:22:41;98078.47;;;11.13;89.33
17635;BME280;8936;49.010;12.120;2023-04-27T04:25:08;98072.88;;;11.14;88.80
17635;BME280;8936;49.010;12.120;2023-04-27T04:27:34;98083.06;;;11.27;87.87
17635;BME280;8936;49.010;12.120;2023-04-27T04:30:01;98077.75;;;11.32;87.33
17635;BME280;8936;49.010;12.120;2023-04-27T04:32:31;98082.75;;;11.09;88.46
17635;BME280;8936;49.010;12.120;2023-04-27T04:34:58;98089.19;;;11.13;88.14
17635;BME280;8936;49.010;12.120;2023-04-27T04:37:25;98096.91;;;11.14;87.88
17635;BME280;8936;49.010;12.120;2023-04-27T04:39:52;98087.06;;;11.20;88.21
17635;BME280;8936;49.010;12.120;2023-04-27T04:42:18;98100.97;;;11.17;88.56
17635;BME280;8936;49.010;12.120;2023-04-27T04:44:45;98103.69;;;10.75;90.82
17635;BME280;8936;49.010;12.120;2023-04-27T04:47:11;98098.66;;;10.37;94.25
17635;BME280;8936;49.010;12.120;2023-04-27T04:49:39;98112.91;;;10.52;93.87
17635;BME280;8936;49.010;12.120;2023-04-27T04:52:05;98111.63;;;10.23;96.34
17635;BME280;8936;49.010;12.120;2023-04-27T04:54:31;98110.09;;;10.32;95.77
17635;BME280;8936;49.010;12.120;2023-04-27T04:56:58;98100.66;;;10.56;94.72
17635;BME280;8936;49.010;12.120;2023-04-27T04:59:25;98099.69;;;10.72;93.44
17635;BME280;8936;49.010;12.120;2023-04-27T05:01:51;98102.78;;;10.54;94.17
17635;BME280;8936;49.010;12.120;2023-04-27T05:04:19;98103.88;;;10.58;94.58
17635;BME280;8936;49.010;12.120;2023-04-27T05:06:47;98103.59;;;10.60;94.71
17635;BME280;8936;49.010;12.120;2023-04-27T05:09:15;98099.75;;;10.82;93.06
17635;BME280;8936;49.010;12.120;2023-04-27T05:11:42;98094.41;;;10.82;91.74
17635;BME280;8936;49.010;12.120;2023-04-27T05:14:08;98100.88;;;10.97;91.30
17635;BME280;8936;49.010;12.120;2023-04-27T05:16:34;98099.28;;;11.06;90.37
17635;BME280;8936;49.010;12.120;2023-04-27T05:19:01;98099.06;;;11.12;90.18
17635;BME280;8936;49.010;12.120;2023-04-27T05:21:30;98093.75;;;11.22;89.18
17635;BME280;8936;49.010;12.120;2023-04-27T05:23:57;98094.56;;;11.28;88.16
17635;BME280;8936;49.010;12.120;2023-04-27T05:26:24;98100.34;;;11.00;89.81
17635;BME280;8936;49.010;12.120;2023-04-27T05:28:50;98102.19;;;10.47;93.12
17635;BME280;8936;49.010;12.120;2023-04-27T05:31:16;98108.34;;;10.48;95.90
17635;BME280;8936;49.010;12.120;2023-04-27T05:33:43;98116.03;;;10.39;95.92
17635;BME280;8936;49.010;12.120;2023-04-27T05:36:09;98111.31;;;10.51;96.18
17635;BME280;8936;49.010;12.120;2023-04-27T05:38:36;98104.50;;;10.75;94.10
17635;BME280;8936;49.010;12.120;2023-04-27T05:41:05;98108.03;;;10.86;93.19
17635;BME280;8936;49.010;12.120;2023-04-27T05:43:31;98117.19;;;11.00;91.84
17635;BME280;8936;49.010;12.120;2023-04-27T05:45:59;98113.31;;;10.76;92.63
17635;BME280;8936;49.010;12.120;2023-04-27T05:48:25;98112.97;;;10.62;93.96
17635;BME280;8936;49.010;12.120;2023-04-27T05:50:57;98118.81;;;10.54;95.01
17635;BME280;8936;49.010;12.120;2023-04-27T05:53:23;98118.06;;;10.64;95.02
17635;BME280;8936;49.010;12.120;2023-04-27T05:55:50;98121.34;;;10.76;94.51
17635;BME280;8936;49.010;12.120;2023-04-27T05:58:18;98128.69;;;11.01;92.50
17635;BME280;8936;49.010;12.120;2023-04-27T06:00:44;98117.66;;;10.87;91.89
17635;BME280;8936;49.010;12.120;2023-04-27T06:03:11;98117.63;;;10.82;93.21
17635;BME280;8936;49.010;12.120;2023-04-27T06:05:37;98122.69;;;10.83;93.67
17635;BME280;8936;49.010;12.120;2023-04-27T06:08:03;98120.63;;;10.96;92.59
17635;BME280;8936;49.010;12.120;2023-04-27T06:10:30;98124.47;;;11.15;90.88
17635;BME280;8936;49.010;12.120;2023-04-27T06:12:56;98132.59;;;10.83;92.98
17635;BME280;8936;49.010;12.120;2023-04-27T06:15:24;98129.09;;;10.36;97.02
17635;BME280;8936;49.010;12.120;2023-04-27T06:17:50;98134.69;;;10.07;100.00
17635;BME280;8936;49.010;12.120;2023-04-27T06:20:17;98125.06;;;10.75;96.83
17635;BME280;8936;49.010;12.120;2023-04-27T06:22:43;98129.25;;;11.08;93.14
17635;BME280;8936;49.010;12.120;2023-04-27T06:25:10;98137.28;;;11.13;92.46
17635;BME280;8936;49.010;12.120;2023-04-27T06:27:37;98135.38;;;11.03;92.58
17635;BME280;8936;49.010;12.120;2023-04-27T06:30:04;98143.50;;;11.28;91.58
17635;BME280;8936;49.010;12.120;2023-04-27T06:32:32;98128.84;;;11.46;90.12
17635;BME280;8936;49.010;12.120;2023-04-27T06:34:58;98140.97;;;11.02;92.69
17635;BME280;8936;49.010;12.120;2023-04-27T06:37:25;98143.53;;;10.81;94.58
17635;BME280;8936;49.010;12.120;2023-04-27T06:39:51;98144.13;;;10.94;94.24
17635;BME280;8936;49.010;12.120;2023-04-27T06:42:17;98145.00;;;11.04;93.58
17635;BME280;8936;49.010;12.120;2023-04-27T06:44:44;98147.50;;;11.26;92.91
17635;BME280;8936;49.010;12.120;2023-04-27T06:47:10;98148.03;;;11.28;92.70
17635;BME280;8936;49.010;12.120;2023-04-27T06:49:38;98149.84;;;11.07;94.28
17635;BME280;8936;49.010;12.120;2023-04-27T06:52:04;98147.00;;;11.39;92.67
17635;BME280;8936;49.010;12.120;2023-04-27T06:54:30;98138.22;;;11.44;91.29
17635;BME280;8936;49.010;12.120;2023-04-27T06:56:57;98142.03;;;11.68;89.87
17635;BME280;8936;49.010;12.120;2023-04-27T06:59:23;98146.81;;;11.56;90.54
17635;BME280;8936;49.010;12.120;2023-04-27T07:01:49;98153.88;;;11.87;89.15
17635;BME280;8936;49.010;12.120;2023-04-27T07:04:16;98133.00;;;11.99;87.57
17635;BME280;8936;49.010;12.120;2023-04-27T07:06:43;98138.66;;;12.13;86.33
17635;BME280;8936;49.010;12.120;2023-04-27T07:09:10;98135.69;;;12.24;85.39
17635;BME280;8936;49.010;12.120;2023-04-27T07:11:36;98146.16;;;12.21;85.45
17635;BME280;8936;49.010;12.120;2023-04-27T07:14:03;98141.84;;;12.35;84.80
17635;BME280;8936;49.010;12.120;2023-04-27T07:16:29;98142.66;;;12.30;84.24
17635;BME280;8936;49.010;12.120;2023-04-27T07:18:55;98138.13;;;12.31;84.68
17635;BME280;8936;49.010;12.120;2023-04-27T07:21:22;98143.72;;;12.24;81.51
17635;BME280;8936;49.010;12.120;2023-04-27T07:23:49;98145.56;;;11.88;81.38
17635;BME280;8936;49.010;12.120;2023-04-27T07:26:16;98140.75;;;11.96;84.23
17635;BME280;8936;49.010;12.120;2023-04-27T07:28:42;98135.44;;;12.06;84.82
17635;BME280;8936;49.010;12.120;2023-04-27T07:31:08;98145.88;;;12.12;81.23
17635;BME280;8936;49.010;12.120;2023-04-27T07:33:35;98142.94;;;12.24;82.40
17635;BME280;8936;49.010;12.120;2023-04-27T07:36:01;98144.53;;;12.25;81.82
17635;BME280;8936;49.010;12.120;2023-04-27T07:38:28;98145.34;;;12.30;81.84
17635;BME280;8936;49.010;12.120;2023-04-27T07:40:57;98145.63;;;12.34;80.80
17635;BME280;8936;49.010;12.120;2023-04-27T07:43:25;98137.84;;;12.37;80.89
17635;BME280;8936;49.010;12.120;2023-04-27T07:45:52;98136.22;;;12.16;79.60
17635;BME280;8936;49.010;12.120;2023-04-27T07:48:19;98139.19;;;12.10;80.52
17635;BME280;8936;49.010;12.120;2023-04-27T07:50:46;98130.34;;;12.14;82.45
17635;BME280;8936;49.010;12.120;2023-04-27T07:53:12;98133.84;;;12.25;81.53
17635;BME280;8936;49.010;12.120;2023-04-27T07:55:39;98140.50;;;12.32;81.72
17635;BME280;8936;49.010;12.120;2023-04-27T07:58:09;98146.94;;;12.36;79.88
17635;BME280;8936;49.010;12.120;2023-04-27T08:00:36;98144.53;;;12.15;80.83
17635;BME280;8936;49.010;12.120;2023-04-27T08:03:02;98148.53;;;12.32;80.73
17635;BME280;8936;49.010;12.120;2023-04-27T08:05:28;98145.59;;;12.29;79.85
17635;BME280;8936;49.010;12.120;2023-04-27T08:07:55;98148.25;;;11.99;80.47
17635;BME280;8936;49.010;12.120;2023-04-27T08:10:21;98147.19;;;11.84;83.07
17635;BME280;8936;49.010;12.120;2023-04-27T08:12:48;98142.66;;;12.20;82.42
17635;BME280;8936;49.010;12.120;2023-04-27T08:15:15;98143.47;;;12.31;80.26
17635;BME280;8936;49.010;12.120;2023-04-27T08:17:42;98152.03;;;12.23;79.62
17635;BME280;8936;49.010;12.120;2023-04-27T08:20:09;98155.72;;;11.91;78.77
17635;BME280;8936;49.010;12.120;2023-04-27T08:22:36;98146.03;;;11.60;79.08
17635;BME280;8936;49.010;12.120;2023-04-27T08:25:03;98147.94;;;11.70;79.10
17635;BME280;8936;49.010;12.120;2023-04-27T08:27:30;98143.47;;;12.06;81.05
17635;BME280;8936;49.010;12.120;2023-04-27T08:29:57;98150.44;;;12.37;80.15
17635;BME280;8936;49.010;12.120;2023-04-27T08:32:26;98143.44;;;12.51;79.19
17635;BME280;8936;49.010;12.120;2023-04-27T08:34:52;98152.28;;;12.67;78.77
17635;BME280;8936;49.010;12.120;2023-04-27T08:37:19;98150.66;;;12.76;77.86
17635;BME280;8936;49.010;12.120;2023-04-27T08:39:46;98144.78;;;12.69;80.42
17635;BME280;8936;49.010;12.120;2023-04-27T08:42:13;98148.47;;;12.88;78.80
17635;BME280;8936;49.010;12.120;2023-04-27T08:44:39;98147.72;;;12.67;74.02
17635;BME280;8936;49.010;12.120;2023-04-27T08:47:05;98149.91;;;12.50;76.47
17635;BME280;8936;49.010;12.120;2023-04-27T08:49:34;98145.63;;;12.34;77.02
17635;BME280;8936;49.010;12.120;2023-04-27T08:52:02;98145.63;;;12.19;77.37
17635;BME280;8936;49.010;12.120;2023-04-27T08:54:28;98148.28;;;12.24;79.40
17635;BME280;8936;49.010;12.120;2023-04-27T08:56:55;98153.34;;;12.61;82.07
17635;BME280;8936;49.010;12.120;2023-04-27T08:59:22;98149.06;;;12.44;72.54
17635;BME280;8936;49.010;12.120;2023-04-27T09:01:48;98145.59;;;12.29;69.72
17635;BME280;8936;49.010;12.120;2023-04-27T09:04:15;98149.63;;;12.11;69.19
17635;BME280;8936;49.010;12.120;2023-04-27T09:06:43;98151.78;;;12.50;71.14
17635;BME280;8936;49.010;12.120;2023-04-27T09:09:09;98156.00;;;12.66;72.09
17635;BME280;8936;49.010;12.120;2023-04-27T09:11:46;98146.38;;;12.70;70.88
17635;BME280;8936;49.010;12.120;2023-04-27T09:14:14;98146.16;;;12.46;71.08
17635;BME280;8936;49.010;12.120;2023-04-27T09:16:41;98147.19;;;12.60;72.81
17635;BME280;8936;49.010;12.120;2023-04-27T09:19:09;98150.16;;;12.69;73.51
17635;BME280;8936;49.010;12.120;2023-04-27T09:21:35;98151.19;;;12.83;73.16
17635;BME280;8936;49.010;12.120;2023-04-27T09:24:10;98151.75;;;12.75;71.65
17635;BME280;8936;49.010;12.120;2023-04-27T09:26:36;98145.53;;;12.94;74.37
17635;BME280;8936;49.010;12.120;2023-04-27T09:29:03;98146.00;;;13.22;71.56
17635;BME280;8936;49.010;12.120;2023-04-27T09:31:30;98150.03;;;13.19;66.14
17635;BME280;8936;49.010;12.120;2023-04-27T09:33:56;98141.97;;;13.19;66.86
17635;BME280;8936;49.010;12.120;2023-04-27T09:36:22;98141.06;;;13.44;69.46
17635;BME280;8936;49.010;12.120;2023-04-27T09:38:50;98143.84;;;13.24;65.89
17635;BME280;8936;49.010;12.120;2023-04-27T09:41:18;98138.94;;;13.41;67.30
17635;BME280;8936;49.010;12.120;2023-04-27T09:43:45;98140.81;;;13.45;64.83
17635;BME280;8936;49.010;12.120;2023-04-27T09:46:12;98141.25;;;13.63;67.17
17635;BME280;8936;49.010;12.120;2023-04-27T09:48:38;98130.69;;;13.81;66.72
17635;BME280;8936;49.010;12.120;2023-04-27T09:51:06;98130.69;;;13.81;65.57
17635;BME280;8936;49.010;12.120;2023-04-27T09:53:32;98126.06;;;13.87;67.32
17635;BME280;8936;49.010;12.120;2023-04-27T09:56:05;98122.47;;;14.06;66.05
17635;BME280;8936;49.010;12.120;2023-04-27T09:58:45;98129.06;;;14.19;66.73
17635;BME280;8936;49.010;12.120;2023-04-27T10:01:17;98119.72;;;14.12;67.04
17635;BME280;8936;49.010;12.120;2023-04-27T10:03:50;98109.22;;;14.15;62.09
17635;BME280;8936;49.010;12.120;2023-04-27T10:06:36;98116.88;;;14.32;63.43
17635;BME280;8936;49.010;12.120;2023-04-27T10:09:10;98108.81;;;14.32;62.87
17635;BME280;8936;49.010;12.120;2023-04-27T10:11:37;98104.75;;;14.39;62.35
17635;BME280;8936;49.010;12.120;2023-04-27T10:14:06;98111.66;;;14.50;60.76
17635;BME280;8936;49.010;12.120;2023-04-27T10:16:38;98108.06;;;14.60;61.67
17635;BME280;8936;49.010;12.120;2023-04-27T10:19:08;98111.09;;;14.77;58.04
17635;BME280;8936;49.010;12.120;2023-04-27T10:21:35;98110.53;;;14.80;55.28
17635;BME280;8936;49.010;12.120;2023-04-27T10:24:05;98107.00;;;14.85;56.93
17635;BME280;8936;49.010;12.120;2023-04-27T10:26:32;98105.28;;;14.94;49.81
17635;BME280;8936;49.010;12.120;2023-04-27T10:29:03;98096.75;;;14.63;47.44
17635;BME280;8936;49.010;12.120;2023-04-27T10:31:32;98091.59;;;14.38;48.31
17635;BME280;8936;49.010;12.120;2023-04-27T10:34:06;98104.66;;;14.16;49.06
17635;BME280;8936;49.010;12.120;2023-04-27T10:36:33;98097.28;;;13.97;47.57
17635;BME280;8936;49.010;12.120;2023-04-27T10:39:01;98096.34;;;13.78;48.85
17635;BME280;8936;49.010;12.120;2023-04-27T10:41:32;98092.84;;;13.78;49.05
17635;BME280;8936;49.010;12.120;2023-04-27T10:44:12;98089.53;;;13.91;51.17
17635;BME280;8936;49.010;12.120;2023-04-27T10:46:49;98070.78;;;14.20;52.59
17635;BME280;8936;49.010;12.120;2023-04-27T10:49:15;98081.28;;;14.50;51.92
17635;BME280;8936;49.010;12.120;2023-04-27T10:51:42;98086.84;;;14.58;52.15
17635;BME280;8936;49.010;12.120;2023-04-27T10:54:08;98081.69;;;14.86;49.72
17635;BME280;8936;49.010;12.120;2023-04-27T10:56:34;98083.81;;;14.89;51.26
17635;BME280;8936;49.010;12.120;2023-04-27T10:59:01;98078.22;;;14.85;52.31
17635;BME280;8936;49.010;12.120;2023-04-27T11:01:28;98080.56;;;14.92;49.59
17635;BME280;8936;49.010;12.120;2023-04-27T11:03:55;98090.34;;;14.83;51.51
17635;BME280;8936;49.010;12.120;2023-04-27T11:06:22;98081.13;;;14.65;49.99
17635;BME280;8936;49.010;12.120;2023-04-27T11:08:49;98078.72;;;14.64;51.67
17635;BME280;8936;49.010;12.120;2023-04-27T11:11:16;98083.88;;;15.07;51.94
17635;BME280;8936;49.010;12.120;2023-04-27T11:13:42;98085.44;;;15.32;52.66
17635;BME280;8936;49.010;12.120;2023-04-27T11:16:09;98074.91;;;15.36;48.40
17635;BME280;8936;49.010;12.120;2023-04-27T11:18:36;98074.28;;;15.20;49.14
17635;BME280;8936;49.010;12.120;2023-04-27T11:21:07;98069.88;;;15.29;51.18
17635;BME280;8936;49.010;12.120;2023-04-27T11:23:35;98062.69;;;15.43;48.37
17635;BME280;8936;49.010;12.120;2023-04-27T11:26:07;98065.06;;;15.50;50.94
17635;BME280;8936;49.010;12.120;2023-04-27T11:28:34;98071.72;;;15.34;47.14
17635;BME280;8936;49.010;12.120;2023-04-27T11:31:00;98078.28;;;15.23;48.00
17635;BME280;8936;49.010;12.120;2023-04-27T11:33:28;98067.13;;;15.34;49.34
17635;BME280;8936;49.010;12.120;2023-04-27T11:35:55;98061.75;;;15.34;49.52
17635;BME280;8936;49.010;12.120;2023-04-27T11:38:23;98072.34;;;15.44;50.06
17635;BME280;8936;49.010;12.120;2023-04-27T11:40:59;98059.69;;;15.50;50.22
17635;BME280;8936;49.010;12.120;2023-04-27T11:43:26;98065.78;;;15.55;49.12
17635;BME280;8936;49.010;12.120;2023-04-27T11:45:53;98070.66;;;15.53;49.33
17635;BME280;8936;49.010;12.120;2023-04-27T11:48:21;98069.34;;;15.51;50.19
17635;BME280;8936;49.010;12.120;2023-04-27T11:50:48;98069.13;;;15.66;51.80
17635;BME280;8936;49.010;12.120;2023-04-27T11:53:15;98066.81;;;15.78;51.04
17635;BME280;8936;49.010;12.120;2023-04-27T11:55:43;98066.81;;;15.78;48.79
17635;BME280;8936;49.010;12.120;2023-04-27T11:58:13;98075.09;;;15.63;48.59
17635;BME280;8936;49.010;12.120;2023-04-27T12:00:39;98075.38;;;15.61;52.77
17635;BME280;8936;49.010;12.120;2023-04-27T12:03:06;98065.19;;;15.77;49.47
17635;BME280;8936;49.010;12.120;2023-04-27T12:05:32;98060.91;;;15.57;49.28
17635;BME280;8936;49.010;12.120;2023-04-27T12:07:59;98056.09;;;15.54;52.27
17635;BME280;8936;49.010;12.120;2023-04-27T12:10:25;98068.13;;;15.81;52.33
17635;BME280;8936;49.010;12.120;2023-04-27T12:12:53;98062.84;;;15.89;51.02
17635;BME280;8936;49.010;12.120;2023-04-27T12:15:20;98062.13;;;16.02;52.13
17635;BME280;8936;49.010;12.120;2023-04-27T12:17:46;98050.84;;;15.82;48.22
17635;BME280;8936;49.010;12.120;2023-04-27T12:20:12;98062.13;;;15.84;51.03
17635;BME280;8936;49.010;12.120;2023-04-27T12:22:39;98055.59;;;16.03;50.16
17635;BME280;8936;49.010;12.120;2023-04-27T12:25:06;98056.63;;;15.75;47.34
17635;BME280;8936;49.010;12.120;2023-04-27T12:27:32;98049.84;;;15.78;47.92
17635;BME280;8936;49.010;12.120;2023-04-27T12:30:00;98057.81;;;16.01;48.11
17635;BME280;8936;49.010;12.120;2023-04-27T12:32:26;98050.47;;;15.88;50.10
17635;BME280;8936;49.010;12.120;2023-04-27T12:34:52;98050.38;;;16.12;49.25
17635;BME280;8936;49.010;12.120;2023-04-27T12:37:19;98044.56;;;16.18;49.54
17635;BME280;8936;49.010;12.120;2023-04-27T12:39:46;98050.28;;;16.17;52.20
17635;BME280;8936;49.010;12.120;2023-04-27T12:42:12;98060.78;;;16.32;50.21
17635;BME280;8936;49.010;12.120;2023-04-27T12:44:39;98052.50;;;16.29;50.93
17635;BME280;8936;49.010;12.120;2023-04-27T12:47:06;98046.84;;;16.44;49.02
17635;BME280;8936;49.010;12.120;2023-04-27T12:49:33;98047.94;;;16.43;49.66
17635;BME280;8936;49.010;12.120;2023-04-27T12:52:00;98048.44;;;16.45;49.80
17635;BME280;8936;49.010;12.120;2023-04-27T12:54:26;98044.00;;;16.22;46.85
17635;BME280;8936;49.010;12.120;2023-04-27T12:56:53;98041.81;;;15.91;49.03
17635;BME280;8936;49.010;12.120;2023-04-27T12:59:19;98041.97;;;16.13;48.82